Time;durP1;ratioP1;P1;durP2;ratioP2;P2;SDS_P1;SDS_P2;PMS_P1;PMS_P2;Temp;Humidity;BMP_temperature;BMP_pressure;BME280_temperature;BME280_humidity;BME280_pressure;Samples;Min_cycle;Max_cycle;Signal;HPM_P1;HPM_P2
2023/03/24 00:00:10;;;;;;;11.75;4.85;;;11.00;99.90;;;;;;5006668;28;20397;-72
2023/03/24 00:02:40;;;;;;;12.23;4.47;;;11.00;99.90;;;;;;5045931;28;20033;-76
2023/03/24 00:05:21;;;;;;;9.60;3.63;;;11.00;99.90;;;;;;5007379;28;20619;-76
2023/03/24 00:07:47;;;;;;;8.85;4.10;;;11.00;99.90;;;;;;5007880;28;20454;-76
2023/03/24 00:10:19;;;;;;;6.40;4.10;;;11.00;99.90;;;;;;5006650;28;20048;-76
2023/03/24 00:12:49;;;;;;;7.55;3.78;;;11.00;99.90;;;;;;5006679;28;20783;-76
2023/03/24 00:15:18;;;;;;;8.93;3.58;;;11.00;99.90;;;;;;5008128;28;20038;-78
2023/03/24 00:17:51;;;;;;;5.68;3.28;;;11.00;99.90;;;;;;5007037;28;20037;-75
2023/03/24 00:20:19;;;;;;;8.48;3.88;;;11.00;99.90;;;;;;4994289;28;20037;-72
2023/03/24 00:22:55;;;;;;;8.80;4.07;;;11.00;99.90;;;;;;5032315;28;20121;-72
2023/03/24 00:25:22;;;;;;;8.43;3.47;;;11.00;99.90;;;;;;5007089;28;20036;-72
2023/03/24 00:27:50;;;;;;;8.35;4.38;;;11.00;99.90;;;;;;4988936;28;20030;-73
2023/03/24 00:30:17;;;;;;;6.00;3.33;;;11.00;99.90;;;;;;5006104;28;20030;-73
2023/03/24 00:32:45;;;;;;;6.60;3.35;;;11.00;99.90;;;;;;5004567;28;20529;-74
2023/03/24 00:35:12;;;;;;;8.52;3.33;;;10.90;99.90;;;;;;5006930;28;20447;-73
2023/03/24 00:37:40;;;;;;;6.68;3.10;;;11.00;99.90;;;;;;5005093;28;20033;-80
2023/03/24 00:40:12;;;;;;;4.65;3.10;;;10.90;99.90;;;;;;5011977;28;20040;-73
2023/03/24 00:42:44;;;;;;;7.35;3.15;;;11.00;99.90;;;;;;5010635;28;20033;-73
2023/03/24 00:45:16;;;;;;;8.63;4.05;;;11.00;99.90;;;;;;5010710;28;20604;-76
2023/03/24 00:47:43;;;;;;;6.32;3.35;;;11.00;99.90;;;;;;5008518;28;20524;-78
2023/03/24 00:50:16;;;;;;;7.65;3.30;;;11.00;99.90;;;;;;5010226;28;20034;-73
2023/03/24 00:52:43;;;;;;;9.80;3.42;;;11.00;99.90;;;;;;5008532;28;20147;-76
2023/03/24 00:55:14;;;;;;;6.57;2.45;;;11.00;99.90;;;;;;5008967;28;20029;-77
2023/03/24 00:57:40;;;;;;;;;;;10.90;99.90;;;;;;5007871;28;20123;-73
2023/03/24 01:00:18;;;;;;;7.25;2.95;;;10.90;99.90;;;;;;5010734;28;19960;-73
2023/03/24 01:02:46;;;;;;;9.43;4.03;;;10.90;99.90;;;;;;5008415;28;20931;-73
2023/03/24 01:05:13;;;;;;;8.02;3.72;;;10.90;99.90;;;;;;5015175;28;20049;-73
2023/03/24 01:07:40;;;;;;;8.25;3.50;;;10.90;99.90;;;;;;4995007;28;20025;-72
2023/03/24 01:10:07;;;;;;;3.60;2.50;;;10.80;99.90;;;;;;5008037;28;20034;-71
2023/03/24 01:12:38;;;;;;;11.05;3.38;;;10.80;99.90;;;;;;5005475;28;20025;-71
2023/03/24 01:15:17;;;;;;;6.88;3.58;;;10.80;99.90;;;;;;5011171;28;20041;-71
2023/03/24 01:17:45;;;;;;;8.48;3.08;;;10.80;99.90;;;;;;5029815;28;20034;-76
2023/03/24 01:20:12;;;;;;;5.13;3.17;;;10.80;99.90;;;;;;4996587;28;20175;-75
2023/03/24 01:22:40;;;;;;;5.82;3.03;;;10.70;99.90;;;;;;5012622;28;20026;-75
2023/03/24 01:25:08;;;;;;;5.93;3.22;;;10.70;99.90;;;;;;5009615;28;20034;-76
2023/03/24 01:27:35;;;;;;;9.60;4.97;;;10.70;99.90;;;;;;5007403;28;20073;-76
2023/03/24 01:30:05;;;;;;;9.40;3.60;;;10.70;99.90;;;;;;5009999;28;20061;-75
2023/03/24 01:32:31;;;;;;;6.67;3.50;;;10.70;99.90;;;;;;5010302;28;20104;-76
2023/03/24 01:34:57;;;;;;;9.43;4.20;;;10.60;99.90;;;;;;5019151;28;20260;-75
2023/03/24 01:37:23;;;;;;;8.32;3.70;;;10.70;99.90;;;;;;4991771;28;20029;-76
2023/03/24 01:39:50;;;;;;;7.47;3.35;;;10.60;99.90;;;;;;5010129;28;20053;-76
2023/03/24 01:42:22;;;;;;;7.88;4.10;;;10.60;99.90;;;;;;4991318;28;20100;-76
2023/03/24 01:44:50;;;;;;;8.63;3.30;;;10.60;99.90;;;;;;4990367;28;20493;-79
2023/03/24 01:47:16;;;;;;;9.10;3.65;;;10.60;99.90;;;;;;5022059;28;20041;-74
2023/03/24 01:49:55;;;;;;;10.57;3.85;;;10.60;99.90;;;;;;5029332;28;20049;-73
2023/03/24 01:52:29;;;;;;;6.47;3.45;;;10.60;99.90;;;;;;5010972;28;20113;-76
2023/03/24 01:55:17;;;;;;;8.15;4.05;;;10.60;99.90;;;;;;5009481;28;20060;-75
2023/03/24 01:57:48;;;;;;;10.85;4.57;;;10.60;99.90;;;;;;5008480;28;20025;-73
2023/03/24 02:00:17;;;;;;;6.13;3.33;;;10.50;99.90;;;;;;5009119;28;20034;-76
2023/03/24 02:02:53;;;;;;;8.75;3.15;;;10.60;99.90;;;;;;5008058;28;20041;-77
2023/03/24 02:05:23;;;;;;;8.60;3.80;;;10.50;99.90;;;;;;5007991;28;20053;-78
2023/03/24 02:07:52;;;;;;;7.53;3.60;;;10.50;99.90;;;;;;5007000;28;20081;-75
2023/03/24 02:10:20;;;;;;;9.70;3.58;;;10.50;99.90;;;;;;5009180;28;20510;-76
2023/03/24 02:12:46;;;;;;;9.35;3.63;;;10.50;99.90;;;;;;5007977;28;20034;-76
2023/03/24 02:15:15;;;;;;;8.23;3.72;;;10.50;99.90;;;;;;5036053;28;20374;-76
2023/03/24 02:17:56;;;;;;;8.25;3.60;;;10.50;99.90;;;;;;5008609;28;20694;-75
2023/03/24 02:20:37;;;;;;;6.40;3.97;;;10.50;99.90;;;;;;4992222;28;20125;-76
2023/03/24 02:23:41;;;;;;;8.57;4.03;;;10.40;99.90;;;;;;5007342;28;20093;-76
2023/03/24 02:26:33;;;;;;;9.02;3.88;;;10.40;99.90;;;;;;4997538;28;20034;-77
2023/03/24 02:29:08;;;;;;;11.68;4.00;;;10.40;99.90;;;;;;5007441;28;20041;-77
2023/03/24 02:32:08;;;;;;;7.22;4.35;;;10.30;99.90;;;;;;5007079;28;20113;-75
2023/03/24 02:35:09;;;;;;;8.27;3.88;;;10.30;99.90;;;;;;5012696;28;20160;-77
2023/03/24 02:38:12;;;;;;;10.85;4.40;;;10.30;99.90;;;;;;5019162;28;20038;-76
2023/03/24 02:40:54;;;;;;;10.48;4.53;;;10.30;99.90;;;;;;5011560;28;20156;-76
2023/03/24 02:43:39;;;;;;;10.85;4.30;;;10.30;99.90;;;;;;5023401;28;20048;-73
2023/03/24 02:46:12;;;;;;;9.02;4.30;;;10.30;99.90;;;;;;5008887;28;20412;-73
2023/03/24 02:49:15;;;;;;;10.80;4.50;;;10.30;99.90;;;;;;5008786;28;20405;-77
2023/03/24 02:52:00;;;;;;;13.70;4.55;;;10.30;99.90;;;;;;5010492;28;20034;-72
2023/03/24 02:54:32;;;;;;;9.43;4.85;;;10.30;99.90;;;;;;5006967;28;20045;-74
2023/03/24 02:57:30;;;;;;;14.43;5.15;;;10.30;99.90;;;;;;5003623;28;20029;-76
2023/03/24 02:59:59;;;;;;;11.13;5.40;;;10.30;99.90;;;;;;5002120;28;20541;-73
2023/03/24 03:02:31;;;;;;;9.50;4.32;;;10.30;99.90;;;;;;5017860;28;20490;-78
2023/03/24 03:05:12;;;;;;;8.90;4.65;;;10.30;99.90;;;;;;5007345;28;20456;-71
2023/03/24 03:07:40;;;;;;;8.85;4.97;;;10.30;99.90;;;;;;5005844;28;20552;-74
2023/03/24 03:10:20;;;;;;;8.68;4.85;;;10.30;99.90;;;;;;5018543;28;20022;-76
2023/03/24 03:12:50;;;;;;;13.18;4.85;;;10.30;99.90;;;;;;5009245;28;20030;-72
2023/03/24 03:15:22;;;;;;;12.10;4.63;;;10.30;99.90;;;;;;5008282;28;20112;-78
2023/03/24 03:17:54;;;;;;;12.35;4.90;;;10.30;99.90;;;;;;5007880;28;20025;-72
2023/03/24 03:20:23;;;;;;;9.90;5.35;;;10.30;99.90;;;;;;5009143;28;20034;-77
2023/03/24 03:23:02;;;;;;;10.88;4.90;;;10.30;99.90;;;;;;5007352;28;20026;-72
2023/03/24 03:25:37;;;;;;;8.88;4.85;;;10.30;99.90;;;;;;5007098;28;20022;-76
2023/03/24 03:28:05;;;;;;;9.25;5.00;;;10.30;99.90;;;;;;4989117;28;20088;-72
2023/03/24 03:30:38;;;;;;;8.70;5.00;;;10.30;99.90;;;;;;5034382;28;20026;-75
2023/03/24 03:33:29;;;;;;;9.07;5.13;;;10.30;99.90;;;;;;5007148;28;20026;-74
2023/03/24 03:36:17;;;;;;;12.63;5.10;;;10.30;99.90;;;;;;5010823;28;20064;-72
2023/03/24 03:39:08;;;;;;;8.30;5.10;;;10.30;99.90;;;;;;5006291;28;20065;-78
2023/03/24 03:41:34;;;;;;;;;;;10.30;99.90;;;;;;5005623;28;20076;-76
2023/03/24 03:44:00;;;;;;;8.45;5.18;;;10.30;99.90;;;;;;5008460;28;20004;-73
2023/03/24 03:46:26;;;;;;;7.72;4.90;;;10.30;99.90;;;;;;5006565;28;20121;-77
2023/03/24 03:48:52;;;;;;;7.35;5.13;;;10.40;99.90;;;;;;4992209;28;20036;-73
2023/03/24 03:51:18;;;;;;;10.10;5.53;;;10.40;99.90;;;;;;5006639;28;20501;-76
2023/03/24 03:54:12;;;;;;;7.68;5.00;;;10.40;99.90;;;;;;5009911;28;20042;-76
2023/03/24 03:56:39;;;;;;;8.75;5.93;;;10.40;99.90;;;;;;5006211;28;20124;-73
2023/03/24 03:59:06;;;;;;;14.57;5.72;;;10.50;99.90;;;;;;5004460;28;20033;-76
2023/03/24 04:01:35;;;;;;;9.77;5.85;;;10.50;99.90;;;;;;5006536;28;20030;-72
2023/03/24 04:04:28;;;;;;;11.05;5.85;;;10.50;99.90;;;;;;5032542;28;20030;-72
2023/03/24 04:07:08;;;;;;;12.20;5.53;;;10.60;99.90;;;;;;5003013;28;20046;-72
2023/03/24 04:09:58;;;;;;;12.60;5.72;;;10.60;99.90;;;;;;5006710;28;20413;-72
2023/03/24 04:12:39;;;;;;;10.27;5.85;;;10.70;99.90;;;;;;5006531;28;20045;-75
2023/03/24 04:15:22;;;;;;;11.52;5.35;;;10.70;99.90;;;;;;5007864;28;20026;-72
2023/03/24 04:18:15;;;;;;;9.68;4.80;;;10.80;99.90;;;;;;5007334;28;20030;-77
2023/03/24 04:21:03;;;;;;;7.53;5.55;;;10.80;99.90;;;;;;5006199;28;20116;-76
2023/03/24 04:23:40;;;;;;;9.07;4.72;;;10.80;99.90;;;;;;5002498;28;20497;-73
2023/03/24 04:26:28;;;;;;;6.50;4.80;;;10.80;99.90;;;;;;5005861;28;20038;-73
2023/03/24 04:29:03;;;;;;;9.82;5.20;;;10.80;99.90;;;;;;5005223;28;20022;-77
2023/03/24 04:31:38;;;;;;;11.30;5.07;;;10.90;99.90;;;;;;5006137;28;20034;-73
2023/03/24 04:34:14;;;;;;;9.60;5.00;;;10.80;99.90;;;;;;5011627;28;20393;-75
2023/03/24 04:36:49;;;;;;;6.63;4.88;;;10.90;99.90;;;;;;5008588;28;20209;-76
2023/03/24 04:39:27;;;;;;;9.45;5.32;;;10.80;99.90;;;;;;5008717;28;20112;-75
2023/03/24 04:42:06;;;;;;;9.40;4.85;;;10.90;99.90;;;;;;5006966;28;20389;-73
2023/03/24 04:44:32;;;;;;;11.20;6.03;;;10.90;99.90;;;;;;5005514;28;20022;-72
2023/03/24 04:47:01;;;;;;;10.05;5.50;;;10.90;99.90;;;;;;4990082;28;20099;-73
2023/03/24 04:49:26;;;;;;;12.35;5.28;;;10.90;99.90;;;;;;5005283;28;20499;-78
2023/03/24 04:51:53;;;;;;;8.73;4.70;;;10.90;99.90;;;;;;5008976;28;20116;-75
2023/03/24 04:54:20;;;;;;;7.75;4.88;;;10.90;99.90;;;;;;5030651;28;20037;-73
2023/03/24 04:56:52;;;;;;;9.20;4.78;;;10.90;99.90;;;;;;5005865;28;20022;-76
2023/03/24 04:59:19;;;;;;;8.50;5.43;;;11.00;99.90;;;;;;4988119;28;20029;-76
2023/03/24 05:01:48;;;;;;;9.73;5.43;;;11.00;99.90;;;;;;5008165;28;20034;-74
2023/03/24 05:04:15;;;;;;;7.35;4.82;;;11.00;99.90;;;;;;5031928;28;20030;-76
2023/03/24 05:06:41;;;;;;;8.35;5.07;;;11.00;99.90;;;;;;5003391;28;20038;-73
2023/03/24 05:09:07;;;;;;;8.02;5.05;;;11.00;99.90;;;;;;5015849;28;20048;-73
2023/03/24 05:11:32;;;;;;;7.43;4.70;;;10.90;99.90;;;;;;5005766;28;20041;-74
2023/03/24 05:13:58;;;;;;;7.90;5.20;;;11.00;99.90;;;;;;5003831;28;20029;-73
2023/03/24 05:16:24;;;;;;;8.45;4.90;;;11.00;99.90;;;;;;4989458;28;20033;-72
2023/03/24 05:18:50;;;;;;;9.27;5.93;;;11.00;99.90;;;;;;5008038;28;20097;-75
2023/03/24 05:21:19;;;;;;;7.45;5.13;;;11.00;99.90;;;;;;5004627;28;20021;-79
2023/03/24 05:23:45;;;;;;;7.82;5.18;;;11.00;99.90;;;;;;5031298;28;20033;-73
2023/03/24 05:26:11;;;;;;;7.65;5.03;;;11.00;99.90;;;;;;5011040;28;20429;-73
2023/03/24 05:28:37;;;;;;;7.47;4.72;;;11.10;99.90;;;;;;5008058;28;20053;-76
2023/03/24 05:31:03;;;;;;;6.88;4.75;;;11.00;99.90;;;;;;4991087;28;20072;-79
2023/03/24 05:33:29;;;;;;;5.85;4.95;;;11.10;99.90;;;;;;5017233;28;20505;-77
2023/03/24 05:35:55;;;;;;;9.80;5.60;;;11.10;99.90;;;;;;5011077;28;20733;-77
2023/03/24 05:38:21;;;;;;;9.23;5.15;;;11.10;99.90;;;;;;5008991;28;20037;-76
2023/03/24 05:40:46;;;;;;;6.55;5.18;;;11.10;99.90;;;;;;5007373;28;20031;-74
2023/03/24 05:43:12;;;;;;;7.88;4.57;;;11.20;99.90;;;;;;5009490;28;20490;-77
2023/03/24 05:45:38;;;;;;;7.53;5.15;;;11.20;99.90;;;;;;5006890;28;20049;-79
2023/03/24 05:48:05;;;;;;;5.85;4.80;;;11.20;99.90;;;;;;5010146;28;20030;-73
2023/03/24 05:50:31;;;;;;;7.38;4.55;;;11.20;99.90;;;;;;5009128;28;20034;-75
2023/03/24 05:52:57;;;;;;;8.25;5.03;;;11.20;99.90;;;;;;5011448;28;20033;-72
2023/03/24 05:55:24;;;;;;;6.82;5.07;;;11.20;99.90;;;;;;5006360;28;20441;-74
2023/03/24 05:57:52;;;;;;;8.05;5.22;;;11.20;99.90;;;;;;5006792;28;20494;-72
2023/03/24 06:00:19;;;;;;;5.93;4.50;;;11.30;99.90;;;;;;5005743;28;20034;-73
2023/03/24 06:02:46;;;;;;;6.80;4.45;;;11.30;99.90;;;;;;5000394;28;20029;-77
2023/03/24 06:05:12;;;;;;;5.55;4.28;;;11.30;99.90;;;;;;5004251;28;20462;-75
2023/03/24 06:07:41;;;;;;;7.20;4.80;;;11.30;99.90;;;;;;5005365;28;20505;-75
2023/03/24 06:10:09;;;;;;;6.65;4.60;;;11.30;99.90;;;;;;5007509;28;20030;-77
2023/03/24 06:12:34;;;;;;;7.13;4.97;;;11.30;99.90;;;;;;4999546;28;20033;-73
2023/03/24 06:15:00;;;;;;;7.30;4.80;;;11.30;99.90;;;;;;4998490;28;20669;-72
2023/03/24 06:17:29;;;;;;;8.77;4.90;;;11.30;99.90;;;;;;5003578;28;20113;-77
2023/03/24 06:20:02;;;;;;;7.18;4.72;;;11.30;99.90;;;;;;5006269;28;20069;-75
2023/03/24 06:22:31;;;;;;;6.70;4.55;;;11.30;99.90;;;;;;5008967;28;20040;-77
2023/03/24 06:24:57;;;;;;;7.55;4.38;;;11.30;99.90;;;;;;5007923;28;20121;-75
2023/03/24 06:27:29;;;;;;;9.02;4.82;;;11.40;99.90;;;;;;5004753;28;20104;-75
2023/03/24 06:29:58;;;;;;;7.75;4.93;;;11.40;99.90;;;;;;5005449;28;20049;-72
2023/03/24 06:32:25;;;;;;;8.75;4.55;;;11.40;99.90;;;;;;5001580;28;20030;-76
2023/03/24 06:34:51;;;;;;;8.93;4.47;;;11.40;99.90;;;;;;4998715;28;20030;-73
2023/03/24 06:37:18;;;;;;;6.63;4.03;;;11.40;99.90;;;;;;5030191;28;20567;-75
2023/03/24 06:39:44;;;;;;;7.32;4.20;;;11.40;99.90;;;;;;5007197;28;20030;-73
2023/03/24 06:42:10;;;;;;;9.40;4.30;;;11.40;99.90;;;;;;5009273;28;20100;-73
2023/03/24 06:44:36;;;;;;;6.85;4.45;;;11.40;99.90;;;;;;5004575;28;20113;-72
2023/03/24 06:47:03;;;;;;;6.07;3.78;;;11.40;99.90;;;;;;5005917;28;20026;-74
2023/03/24 06:49:28;;;;;;;5.35;3.70;;;11.50;99.90;;;;;;5006343;28;20088;-72
2023/03/24 06:51:54;;;;;;;5.80;3.67;;;11.40;99.90;;;;;;5007919;28;20061;-73
2023/03/24 06:54:21;;;;;;;5.57;4.05;;;11.40;99.90;;;;;;5009549;28;20026;-76
2023/03/24 06:56:47;;;;;;;4.57;3.80;;;11.50;99.90;;;;;;4990418;28;20038;-72
2023/03/24 06:59:12;;;;;;;4.82;3.30;;;11.50;99.90;;;;;;5005090;28;20034;-72
2023/03/24 07:01:38;;;;;;;6.38;3.92;;;11.60;99.90;;;;;;5006242;28;20022;-75
2023/03/24 07:04:05;;;;;;;4.22;3.38;;;11.50;99.90;;;;;;5004476;28;20105;-74
2023/03/24 07:06:33;;;;;;;5.95;4.22;;;11.60;99.90;;;;;;4988929;28;20092;-75
2023/03/24 07:08:59;;;;;;;6.30;4.28;;;11.60;99.90;;;;;;5008072;28;20105;-73
2023/03/24 07:11:26;;;;;;;8.23;4.30;;;11.50;99.90;;;;;;5009005;28;20022;-76
2023/03/24 07:13:51;;;;;;;5.20;3.63;;;11.60;99.90;;;;;;5004208;28;20061;-74
2023/03/24 07:16:17;;;;;;;6.32;3.28;;;11.50;99.90;;;;;;5004189;28;20068;-76
2023/03/24 07:18:43;;;;;;;4.15;3.00;;;11.40;99.90;;;;;;5030625;28;20090;-73
2023/03/24 07:21:08;;;;;;;4.18;2.92;;;11.40;99.90;;;;;;5009023;28;20058;-74
2023/03/24 07:23:34;;;;;;;5.22;3.00;;;11.40;99.90;;;;;;5004750;28;20030;-73
2023/03/24 07:26:00;;;;;;;5.95;2.40;;;11.30;99.90;;;;;;5007675;28;20034;-77
2023/03/24 07:28:26;;;;;;;3.35;2.45;;;11.20;99.90;;;;;;4988826;28;20030;-79
2023/03/24 07:30:52;;;;;;;4.28;1.52;;;11.30;99.90;;;;;;5006986;28;20060;-76
2023/03/24 07:33:18;;;;;;;4.68;2.17;;;11.20;99.90;;;;;;5019376;28;20018;-77
2023/03/24 07:35:44;;;;;;;5.28;2.20;;;11.20;99.90;;;;;;4990057;28;20072;-76
2023/03/24 07:38:10;;;;;;;4.38;1.83;;;11.10;99.90;;;;;;5004125;28;20228;-76
2023/03/24 07:40:36;;;;;;;4.03;1.88;;;11.10;99.90;;;;;;5008530;28;20121;-73
2023/03/24 07:43:04;;;;;;;4.90;1.92;;;11.10;99.90;;;;;;5008295;28;20021;-75
2023/03/24 07:45:30;;;;;;;4.63;1.50;;;11.00;99.90;;;;;;5010416;28;20034;-76
2023/03/24 07:48:00;;;;;;;2.85;1.90;;;11.00;99.90;;;;;;5006707;28;20026;-78
2023/03/24 07:50:29;;;;;;;5.85;1.58;;;11.00;99.90;;;;;;5009895;28;20025;-74
2023/03/24 07:52:56;;;;;;;6.28;1.60;;;11.00;99.90;;;;;;5008097;28;20076;-76
2023/03/24 07:55:22;;;;;;;5.55;1.60;;;10.90;99.90;;;;;;5008692;28;20057;-74
2023/03/24 07:57:49;;;;;;;9.27;2.03;;;10.90;99.90;;;;;;5007714;28;20064;-76
2023/03/24 08:00:19;;;;;;;5.93;1.52;;;10.80;99.90;;;;;;5009510;28;20174;-73
2023/03/24 08:02:47;;;;;;;8.93;2.00;;;10.80;99.90;;;;;;5007561;28;20060;-77
2023/03/24 08:05:13;;;;;;;7.82;1.85;;;10.70;99.90;;;;;;5009650;28;21387;-73
2023/03/24 08:07:43;;;;;;;8.27;2.00;;;10.70;99.90;;;;;;5007934;28;20029;-76
2023/03/24 08:10:16;;;;;;;13.82;2.03;;;10.70;99.90;;;;;;5017581;28;20041;-74
2023/03/24 08:12:42;;;;;;;10.55;2.20;;;10.60;99.90;;;;;;5009990;28;20514;-73
2023/03/24 08:15:09;;;;;;;8.55;2.03;;;10.60;99.90;;;;;;5007974;28;20041;-78
2023/03/24 08:17:35;;;;;;;7.05;1.95;;;10.70;99.90;;;;;;4992150;28;20461;-73
2023/03/24 08:20:12;;;;;;;11.07;1.85;;;10.90;99.90;;;;;;5007139;28;20281;-73
2023/03/24 08:22:39;;;;;;;7.60;1.92;;;11.00;99.90;;;;;;5007523;28;20478;-76
2023/03/24 08:25:08;;;;;;;9.18;1.92;;;11.20;99.90;;;;;;5007613;28;20398;-74
2023/03/24 08:27:36;;;;;;;5.63;1.70;;;11.20;99.90;;;;;;5006506;28;20549;-74
2023/03/24 08:30:07;;;;;;;9.35;1.73;;;11.30;99.90;;;;;;5007411;28;20407;-76
2023/03/24 08:32:34;;;;;;;7.00;1.92;;;11.30;99.90;;;;;;4993836;28;20454;-76
2023/03/24 08:35:00;;;;;;;6.82;2.00;;;11.40;99.90;;;;;;5028110;28;20115;-73
2023/03/24 08:37:25;;;;;;;9.73;1.77;;;11.40;99.90;;;;;;5007635;28;20041;-74
2023/03/24 08:39:51;;;;;;;5.68;1.58;;;11.50;99.90;;;;;;5007910;28;20111;-73
2023/03/24 08:42:17;;;;;;;5.55;1.58;;;11.50;99.90;;;;;;5007026;28;20025;-73
2023/03/24 08:44:43;;;;;;;10.45;2.10;;;11.50;99.90;;;;;;5008044;28;20079;-73
2023/03/24 08:47:09;;;;;;;7.50;1.40;;;11.60;99.90;;;;;;5008514;28;20487;-73
2023/03/24 08:49:35;;;;;;;4.57;1.98;;;11.70;99.90;;;;;;5005180;28;20477;-73
2023/03/24 08:52:01;;;;;;;8.45;1.55;;;11.80;99.90;;;;;;5006929;28;20049;-73
2023/03/24 08:54:27;;;;;;;10.13;2.10;;;11.80;99.90;;;;;;5008782;28;20045;-73
2023/03/24 08:56:52;;;;;;;6.47;1.70;;;11.80;99.90;;;;;;5007667;28;20490;-77
2023/03/24 08:59:21;;;;;;;10.32;1.77;;;11.80;99.90;;;;;;5010366;28;20057;-81
2023/03/24 09:01:47;;;;;;;13.00;1.98;;;11.70;99.90;;;;;;4991756;28;20037;-77
2023/03/24 09:04:13;;;;;;;7.13;1.70;;;11.70;99.90;;;;;;5007163;28;20026;-75
2023/03/24 09:06:39;;;;;;;9.65;1.80;;;11.70;99.90;;;;;;5010448;28;20113;-75
2023/03/24 09:09:06;;;;;;;8.48;2.10;;;11.60;99.90;;;;;;4993447;28;20397;-73
2023/03/24 09:11:32;;;;;;;8.68;1.85;;;11.60;99.90;;;;;;5012617;28;20034;-73
2023/03/24 09:13:57;;;;;;;9.75;2.35;;;11.60;99.90;;;;;;5012511;28;20037;-73
2023/03/24 09:16:23;;;;;;;8.50;2.20;;;11.60;99.90;;;;;;5011986;28;20493;-73
2023/03/24 09:18:50;;;;;;;8.90;1.70;;;11.70;99.90;;;;;;5008328;28;20030;-73
2023/03/24 09:21:16;;;;;;;6.63;2.03;;;11.60;99.90;;;;;;5010911;28;20081;-73
2023/03/24 09:23:41;;;;;;;6.35;1.95;;;11.60;99.90;;;;;;5017470;28;20382;-76
2023/03/24 09:26:07;;;;;;;9.65;2.03;;;11.60;99.90;;;;;;5015416;28;20088;-77
2023/03/24 09:28:34;;;;;;;8.38;1.50;;;11.50;99.90;;;;;;5012741;28;20069;-76
2023/03/24 09:31:02;;;;;;;4.47;1.45;;;11.50;99.90;;;;;;5011363;28;20490;-77
2023/03/24 09:33:29;;;;;;;9.77;2.15;;;11.50;99.90;;;;;;5007486;28;20585;-78
2023/03/24 09:36:00;;;;;;;10.90;2.38;;;11.50;99.90;;;;;;4993859;28;20034;-76
2023/03/24 09:38:27;;;;;;;10.10;1.65;;;11.50;99.90;;;;;;5024094;28;20092;-76
2023/03/24 09:41:00;;;;;;;9.57;2.08;;;11.50;99.90;;;;;;5010132;28;20026;-75
2023/03/24 09:43:32;;;;;;;10.88;1.83;;;11.50;99.90;;;;;;5040606;28;20032;-78
2023/03/24 09:46:02;;;;;;;13.52;2.10;;;11.60;99.90;;;;;;5010176;28;20105;-76
2023/03/24 09:48:49;;;;;;;10.10;2.42;;;11.60;99.90;;;;;;5008196;28;20081;-75
2023/03/24 09:51:24;;;;;;;10.30;1.80;;;11.70;99.90;;;;;;4993073;28;20037;-78
2023/03/24 09:54:07;;;;;;;9.45;1.88;;;11.80;99.90;;;;;;4994254;28;20030;-73
2023/03/24 09:56:37;;;;;;;10.50;2.22;;;11.70;99.90;;;;;;5014778;28;20056;-78
2023/03/24 09:59:17;;;;;;;10.45;1.98;;;11.80;99.90;;;;;;5014753;28;20498;-74
2023/03/24 10:01:43;;;;;;;9.23;2.03;;;11.80;99.90;;;;;;5008228;28;20034;-73
2023/03/24 10:04:15;;;;;;;8.38;2.03;;;11.80;99.90;;;;;;5008655;28;20030;-74
2023/03/24 10:06:42;;;;;;;11.88;2.42;;;11.80;99.90;;;;;;5007833;28;20022;-73
2023/03/24 10:09:35;;;;;;;10.35;2.20;;;11.90;99.90;;;;;;5009925;28;20034;-73
2023/03/24 10:12:20;;;;;;;6.30;1.67;;;11.90;99.90;;;;;;5008526;28;20033;-73
2023/03/24 10:15:23;;;;;;;9.77;2.20;;;11.80;99.90;;;;;;5031922;28;20038;-76
2023/03/24 10:18:27;;;;;;;11.43;2.17;;;11.90;99.90;;;;;;5031573;28;20030;-78
2023/03/24 10:21:05;;;;;;;16.77;2.83;;;12.00;99.90;;;;;;4991020;28;20133;-76
2023/03/24 10:23:37;;;;;;;14.85;2.05;;;12.10;99.90;;;;;;5007361;28;20559;-77
2023/03/24 10:26:43;;;;;;;10.30;2.10;;;12.20;99.90;;;;;;5007767;28;20045;-76
2023/03/24 10:29:29;;;;;;;7.03;1.73;;;12.30;99.90;;;;;;5013325;28;20178;-76
2023/03/24 10:32:03;;;;;;;9.02;2.22;;;12.30;99.90;;;;;;5009533;28;20030;-73
2023/03/24 10:34:31;;;;;;;6.65;1.77;;;12.20;99.90;;;;;;5010016;28;20018;-74
2023/03/24 10:37:01;;;;;;;10.88;1.63;;;12.20;99.90;;;;;;5007145;28;20030;-77
2023/03/24 10:39:29;;;;;;;13.18;1.95;;;12.20;99.90;;;;;;4989305;28;20029;-77
2023/03/24 10:41:57;;;;;;;10.77;1.83;;;12.20;99.90;;;;;;5008291;28;20125;-74
2023/03/24 10:44:23;;;;;;;10.32;2.28;;;12.20;99.90;;;;;;5006206;28;20489;-73
2023/03/24 10:46:57;;;;;;;7.85;1.85;;;12.20;99.90;;;;;;5009027;28;20474;-76
2023/03/24 10:49:25;;;;;;;10.95;1.73;;;12.30;99.90;;;;;;5011634;28;20402;-76
2023/03/24 10:51:55;;;;;;;5.63;1.60;;;12.30;99.90;;;;;;4994909;28;20036;-77
2023/03/24 10:54:31;;;;;;;8.30;1.83;;;12.40;99.90;;;;;;5005470;28;20045;-73
2023/03/24 10:56:59;;;;;;;8.15;1.75;;;12.50;99.90;;;;;;5008955;28;21570;-78
2023/03/24 10:59:35;;;;;;;8.38;1.60;;;12.60;99.90;;;;;;5009339;28;20032;-76
2023/03/24 11:02:27;;;;;;;8.32;1.83;;;12.60;99.90;;;;;;5008007;28;20029;-76
2023/03/24 11:05:16;;;;;;;10.05;2.00;;;12.70;99.90;;;;;;5011487;28;20021;-76
2023/03/24 11:07:45;;;;;;;12.63;2.25;;;13.00;99.90;;;;;;5003984;28;20045;-82
2023/03/24 11:10:14;;;;;;;11.68;2.00;;;13.20;99.90;;;;;;4989356;28;20053;-74
2023/03/24 11:13:01;;;;;;;9.63;2.33;;;13.50;99.90;;;;;;5007517;28;20069;-74
2023/03/24 11:15:36;;;;;;;11.77;2.65;;;15.00;99.90;;;;;;5006262;28;20034;-74
2023/03/24 11:18:10;;;;;;;8.27;1.42;;;16.50;99.90;;;;;;5007135;28;20076;-74
2023/03/24 11:20:39;;;;;;;8.27;1.92;;;17.50;96.10;;;;;;5006462;28;20116;-74
2023/03/24 11:23:31;;;;;;;7.35;1.80;;;18.40;92.10;;;;;;5008286;28;20030;-74
2023/03/24 11:26:14;;;;;;;7.20;2.22;;;18.70;87.90;;;;;;5005028;28;20065;-77
2023/03/24 11:28:46;;;;;;;12.50;2.33;;;17.80;91.90;;;;;;5013640;28;20576;-73
2023/03/24 11:31:17;;;;;;;6.63;1.75;;;17.20;90.30;;;;;;5006576;28;20398;-72
2023/03/24 11:33:57;;;;;;;5.90;1.60;;;16.70;93.40;;;;;;5014085;28;20037;-74
2023/03/24 11:36:29;;;;;;;5.55;1.70;;;16.30;93.10;;;;;;5014187;28;20037;-72
2023/03/24 11:39:20;;;;;;;4.97;1.70;;;16.40;91.40;;;;;;4992902;28;20114;-75
2023/03/24 11:42:03;;;;;;;7.75;1.67;;;16.40;92.30;;;;;;5019883;28;20029;-76
2023/03/24 11:44:47;;;;;;;4.18;1.55;;;16.00;92.20;;;;;;5018923;28;20060;-78
2023/03/24 11:47:30;;;;;;;7.07;1.90;;;15.30;93.50;;;;;;5001615;28;20116;-77
2023/03/24 11:50:08;;;;;;;8.13;1.83;;;15.00;97.30;;;;;;5010251;28;20305;-76
2023/03/24 11:52:58;;;;;;;9.80;1.55;;;14.40;96.90;;;;;;5002737;28;20025;-75
2023/03/24 11:55:29;;;;;;;6.83;2.00;;;14.00;95.50;;;;;;5003856;28;20121;-77
2023/03/24 11:58:40;;;;;;;9.23;1.95;;;13.80;99.90;;;;;;5006985;28;20350;-74
2023/03/24 12:01:15;;;;;;;9.20;1.95;;;13.70;99.20;;;;;;4985123;28;20077;-77
2023/03/24 12:04:32;;;;;;;9.43;2.05;;;13.70;99.90;;;;;;5028666;28;20501;-76
2023/03/24 12:07:06;;;;;;;10.77;2.20;;;13.70;99.90;;;;;;4995289;28;20042;-74
2023/03/24 12:09:53;;;;;;;10.43;2.63;;;13.60;99.90;;;;;;5005229;28;20505;-75
2023/03/24 12:12:35;;;;;;;8.65;2.20;;;13.80;99.90;;;;;;5019346;28;20034;-77
2023/03/24 12:15:24;;;;;;;12.23;1.92;;;14.10;99.90;;;;;;5006735;28;20018;-80
2023/03/24 12:18:23;;;;;;;5.85;1.70;;;14.20;99.90;;;;;;5033715;28;20041;-77
2023/03/24 12:21:06;;;;;;;11.73;3.00;;;14.20;99.90;;;;;;4992813;28;20053;-77
2023/03/24 12:24:19;;;;;;;14.05;2.47;;;14.00;99.90;;;;;;5004692;28;20033;-77
2023/03/24 12:26:47;;;;;;;10.95;2.42;;;13.80;99.90;;;;;;5002016;28;20707;-76
2023/03/24 12:29:34;;;;;;;16.77;2.72;;;13.70;99.90;;;;;;5007789;28;20188;-75
2023/03/24 12:32:33;;;;;;;6.75;2.30;;;14.10;99.90;;;;;;5005798;28;20030;-75
2023/03/24 12:35:12;;;;;;;8.73;2.78;;;14.30;99.90;;;;;;5008614;28;20161;-76
2023/03/24 12:37:44;;;;;;;12.02;2.30;;;14.20;99.90;;;;;;5008967;28;20030;-79
2023/03/24 12:40:09;;;;;;;11.40;2.30;;;14.00;99.90;;;;;;5006518;28;20374;-73
2023/03/24 12:42:47;;;;;;;10.32;2.00;;;13.80;99.90;;;;;;5014111;28;20022;-77
2023/03/24 12:45:21;;;;;;;10.75;2.78;;;13.70;99.90;;;;;;5008691;28;20030;-75
2023/03/24 12:48:07;;;;;;;9.75;2.28;;;13.60;99.90;;;;;;5025576;28;20045;-77
2023/03/24 12:50:45;;;;;;;13.00;2.60;;;13.50;99.90;;;;;;4991986;28;20370;-77
2023/03/24 12:53:40;;;;;;;11.90;2.40;;;13.40;99.90;;;;;;5015034;28;20038;-77
2023/03/24 12:56:13;;;;;;;11.90;2.40;;;13.40;99.90;;;;;;5009903;28;20072;-77
2023/03/24 12:58:55;;;;;;;12.80;2.67;;;13.40;99.90;;;;;;5010324;28;20033;-79
2023/03/24 13:01:43;;;;;;;8.25;2.33;;;13.50;99.90;;;;;;5009100;28;20029;-78
2023/03/24 13:04:25;;;;;;;17.77;3.60;;;13.40;99.90;;;;;;5006093;28;20057;-75
2023/03/24 13:07:13;;;;;;;12.55;2.40;;;13.40;99.90;;;;;;5036938;28;20037;-77
2023/03/24 13:09:58;;;;;;;15.32;2.38;;;13.50;99.90;;;;;;5006507;28;20030;-76
2023/03/24 13:12:35;;;;;;;12.57;2.63;;;13.50;99.90;;;;;;5010216;28;20026;-73
2023/03/24 13:15:10;;;;;;;9.20;1.92;;;13.50;99.90;;;;;;5018917;28;20053;-76